createdAt,value
2017-02-14T00:00:00.237Z,1035.71
2017-02-14T00:01:00.989Z,1035.71
2017-02-14T00:02:01.765Z,1035.68
2017-02-14T00:03:02.468Z,1035.63
2017-02-14T00:04:03.172Z,1035.67
2017-02-14T00:05:03.866Z,1035.61
2017-02-14T00:06:04.583Z,1035.61
2017-02-14T00:07:05.309Z,1035.6
2017-02-14T00:08:06.021Z,1035.55
2017-02-14T00:09:06.736Z,1035.54
2017-02-14T00:10:07.436Z,1035.57
2017-02-14T00:11:08.185Z,1035.57
2017-02-14T00:12:08.886Z,1035.58
2017-02-14T00:13:09.579Z,1035.58
2017-02-14T00:14:10.311Z,1035.6
2017-02-14T00:15:11.026Z,1035.59
2017-02-14T00:16:11.746Z,1035.58
2017-02-14T00:17:12.489Z,1035.58
2017-02-14T00:18:13.211Z,1035.58
2017-02-14T00:19:13.936Z,1035.56
2017-02-14T00:20:14.659Z,1035.67
2017-02-14T00:21:15.356Z,1035.64
2017-02-14T00:22:16.071Z,1035.67
2017-02-14T00:23:16.786Z,1035.63
2017-02-14T00:24:17.506Z,1035.63
2017-02-14T00:25:18.235Z,1035.66
2017-02-14T00:26:18.948Z,1035.62
2017-02-14T00:27:19.682Z,1035.64
2017-02-14T00:28:20.492Z,1035.66
2017-02-14T00:29:21.199Z,1035.65
2017-02-14T00:30:21.924Z,1035.66
2017-02-14T00:31:22.690Z,1035.63
2017-02-14T00:32:23.434Z,1035.59
2017-02-14T00:33:24.204Z,1035.62
2017-02-14T00:34:24.954Z,1035.65
2017-02-14T00:35:25.659Z,1035.66
2017-02-14T00:36:26.395Z,1035.74
2017-02-14T00:37:27.119Z,1035.74
2017-02-14T00:38:27.867Z,1035.72
2017-02-14T00:39:28.579Z,1035.71
2017-02-14T00:40:29.321Z,1035.69
2017-02-14T00:41:30.112Z,1035.67
2017-02-14T00:42:30.905Z,1035.65
2017-02-14T00:43:31.617Z,1035.62
2017-02-14T00:44:32.339Z,1035.64
2017-02-14T00:45:33.133Z,1035.61
2017-02-14T00:46:33.895Z,1035.61
2017-02-14T00:47:34.609Z,1035.61
2017-02-14T00:48:35.375Z,1035.59
2017-02-14T00:49:36.094Z,1035.58
2017-02-14T00:50:36.856Z,1035.6
2017-02-14T00:51:37.620Z,1035.58
2017-02-14T00:52:38.379Z,1035.57
2017-02-14T00:53:39.079Z,1035.6
2017-02-14T00:54:39.790Z,1035.54
2017-02-14T00:55:40.502Z,1035.57
2017-02-14T00:56:41.228Z,1035.54
2017-02-14T00:57:41.966Z,1035.56
2017-02-14T00:58:42.686Z,1035.53
2017-02-14T00:59:43.428Z,1035.51
2017-02-14T01:00:44.187Z,1035.51
2017-02-14T01:01:44.900Z,1035.44
2017-02-14T01:02:45.633Z,1035.41
2017-02-14T01:03:46.371Z,1035.45
2017-02-14T01:04:47.061Z,1035.39
2017-02-14T01:05:47.770Z,1035.4
2017-02-14T01:06:48.505Z,1035.37
2017-02-14T01:07:49.224Z,1035.33
2017-02-14T01:08:49.948Z,1035.3
2017-02-14T01:09:50.648Z,1035.3
2017-02-14T01:10:51.347Z,1035.26
2017-02-14T01:11:52.047Z,1035.24
2017-02-14T01:12:52.731Z,1035.23
2017-02-14T01:13:53.437Z,1035.21
2017-02-14T01:14:54.175Z,1035.2
2017-02-14T01:15:54.873Z,1035.21
2017-02-14T01:16:55.581Z,1035.19
2017-02-14T01:17:56.285Z,1035.23
2017-02-14T01:18:57.005Z,1035.21
2017-02-14T01:19:57.698Z,1035.2
2017-02-14T01:20:58.381Z,1035.25
2017-02-14T01:21:59.075Z,1035.21
2017-02-14T01:22:59.747Z,1035.27
2017-02-14T01:24:00.459Z,1035.26
2017-02-14T01:25:01.180Z,1035.25
2017-02-14T01:26:01.907Z,1035.29
2017-02-14T01:27:02.623Z,1035.27
2017-02-14T01:28:03.360Z,1035.33
2017-02-14T01:29:04.069Z,1035.31
2017-02-14T01:30:04.798Z,1035.29
2017-02-14T01:31:05.509Z,1035.29
2017-02-14T01:32:06.203Z,1035.28
2017-02-14T01:33:06.920Z,1035.26
2017-02-14T01:34:07.617Z,1035.27
2017-02-14T01:35:08.314Z,1035.25
2017-02-14T01:36:09.033Z,1035.23
2017-02-14T01:37:09.778Z,1035.19
2017-02-14T01:38:10.459Z,1035.21
2017-02-14T01:39:11.141Z,1035.2
2017-02-14T01:40:11.859Z,1035.18
2017-02-14T01:41:12.530Z,1035.17
2017-02-14T01:42:13.212Z,1035.18
2017-02-14T01:43:13.937Z,1035.14
2017-02-14T01:44:14.688Z,1035.1
2017-02-14T01:45:15.414Z,1035.08
2017-02-14T01:46:16.121Z,1035.09
2017-02-14T01:47:16.810Z,1035.1
2017-02-14T01:48:17.503Z,1035.06
2017-02-14T01:49:18.226Z,1035.08
2017-02-14T01:50:19.000Z,1035.1
2017-02-14T01:51:19.745Z,1035.08
2017-02-14T01:52:20.441Z,1035.06
2017-02-14T01:53:21.142Z,1035.1
2017-02-14T01:54:21.853Z,1035.11
2017-02-14T01:55:22.578Z,1035.11
2017-02-14T01:56:23.291Z,1035.06
2017-02-14T01:57:24.012Z,1035.06
2017-02-14T01:58:24.719Z,1035.08
2017-02-14T01:59:25.405Z,1035.09
2017-02-14T02:00:26.113Z,1035.11
2017-02-14T02:01:26.808Z,1035.05
2017-02-14T02:02:27.573Z,1035.08
2017-02-14T02:03:28.294Z,1035.07
2017-02-14T02:04:29.020Z,1035.06
2017-02-14T02:05:29.730Z,1035.07
2017-02-14T02:06:30.428Z,1035.14
2017-02-14T02:07:31.142Z,1035.14
2017-02-14T02:08:31.846Z,1035.15
2017-02-14T02:09:32.566Z,1035.14
2017-02-14T02:10:33.256Z,1035.16
2017-02-14T02:11:34.004Z,1035.13
2017-02-14T02:12:34.689Z,1035.16
2017-02-14T02:13:42.077Z,1035.17
2017-02-14T02:14:42.785Z,1035.17
2017-02-14T02:15:43.529Z,1035.11
2017-02-14T02:16:44.322Z,1035.1
2017-02-14T02:17:44.998Z,1035.18
2017-02-14T02:18:45.726Z,1035.16
2017-02-14T02:19:46.444Z,1035.17
2017-02-14T02:20:47.147Z,1035.16
2017-02-14T02:21:47.847Z,1035.14
2017-02-14T02:22:48.575Z,1035.1
2017-02-14T02:23:49.281Z,1035.13
2017-02-14T02:24:49.983Z,1035.05
2017-02-14T02:25:50.688Z,1035.05
2017-02-14T02:26:51.397Z,1035.02
2017-02-14T02:27:52.094Z,1034.97
2017-02-14T02:28:52.800Z,1035
2017-02-14T02:29:53.505Z,1034.99
2017-02-14T02:30:54.168Z,1034.97
2017-02-14T02:31:54.875Z,1034.96
2017-02-14T02:32:55.551Z,1034.97
2017-02-14T02:33:56.240Z,1034.9
2017-02-14T02:34:56.910Z,1034.95
2017-02-14T02:35:57.616Z,1034.91
2017-02-14T02:36:58.324Z,1034.84
2017-02-14T02:37:59.051Z,1034.91
2017-02-14T02:38:59.758Z,1034.89
2017-02-14T02:40:00.485Z,1034.91
2017-02-14T02:41:01.180Z,1034.9
2017-02-14T02:42:01.894Z,1034.91
2017-02-14T02:43:02.611Z,1034.92
2017-02-14T02:44:03.296Z,1034.89
2017-02-14T02:45:04.028Z,1034.87
2017-02-14T02:46:04.722Z,1034.85
2017-02-14T02:47:05.445Z,1034.85
2017-02-14T02:48:06.189Z,1034.86
2017-02-14T02:49:06.873Z,1034.84
2017-02-14T02:50:07.554Z,1034.85
2017-02-14T02:51:08.254Z,1034.9
2017-02-14T02:52:09.006Z,1034.9
2017-02-14T02:53:09.723Z,1034.9
2017-02-14T02:54:10.408Z,1034.92
2017-02-14T02:55:11.104Z,1034.93
2017-02-14T02:56:11.818Z,1034.89
2017-02-14T02:57:12.516Z,1034.95
2017-02-14T02:58:13.224Z,1034.91
2017-02-14T02:59:13.934Z,1034.91
2017-02-14T03:00:14.645Z,1034.92
2017-02-14T03:01:15.338Z,1034.93
2017-02-14T03:02:16.027Z,1034.92
2017-02-14T03:03:16.776Z,1034.96
2017-02-14T03:04:17.488Z,1034.95
2017-02-14T03:05:18.213Z,1034.96
2017-02-14T03:06:18.955Z,1034.94
2017-02-14T03:07:19.634Z,1034.94
2017-02-14T03:08:20.352Z,1034.94
2017-02-14T03:09:21.067Z,1034.96
2017-02-14T03:10:21.800Z,1034.95
2017-02-14T03:11:22.512Z,1034.93
2017-02-14T03:12:23.193Z,1034.94
2017-02-14T03:13:23.871Z,1034.92
2017-02-14T03:14:24.559Z,1034.92
2017-02-14T03:15:25.267Z,1034.89
2017-02-14T03:16:25.982Z,1034.94
2017-02-14T03:17:26.659Z,1034.93
2017-02-14T03:18:27.328Z,1034.91
2017-02-14T03:19:28.048Z,1034.86
2017-02-14T03:20:28.729Z,1034.86
2017-02-14T03:21:29.421Z,1034.89
2017-02-14T03:22:30.126Z,1034.91
2017-02-14T03:23:30.837Z,1034.86
2017-02-14T03:24:31.526Z,1034.9
2017-02-14T03:25:32.192Z,1034.88
2017-02-14T03:26:32.891Z,1034.93
2017-02-14T03:27:33.584Z,1034.9
2017-02-14T03:28:34.254Z,1034.93
2017-02-14T03:29:34.934Z,1034.93
2017-02-14T03:30:35.640Z,1034.93
2017-02-14T03:31:36.326Z,1034.96
2017-02-14T03:32:37.039Z,1034.99
2017-02-14T03:33:37.729Z,1034.97
2017-02-14T03:34:38.420Z,1034.96
2017-02-14T03:35:39.111Z,1034.91
2017-02-14T03:36:39.792Z,1034.97
2017-02-14T03:37:40.478Z,1034.98
2017-02-14T03:38:41.176Z,1034.99
2017-02-14T03:39:41.889Z,1035
2017-02-14T03:40:42.582Z,1034.96
2017-02-14T03:41:43.263Z,1034.96
2017-02-14T03:42:43.960Z,1034.95
2017-02-14T03:43:44.672Z,1034.94
2017-02-14T03:44:45.378Z,1034.97
2017-02-14T03:45:46.084Z,1034.96
2017-02-14T03:46:46.756Z,1034.99
2017-02-14T03:47:47.448Z,1034.93
2017-02-14T03:48:48.193Z,1034.94
2017-02-14T03:49:48.893Z,1034.91
2017-02-14T03:50:49.617Z,1034.9
2017-02-14T03:51:50.293Z,1034.89
2017-02-14T03:52:50.985Z,1034.93
2017-02-14T03:53:51.716Z,1034.88
2017-02-14T03:54:52.412Z,1034.87
2017-02-14T03:55:53.100Z,1034.86
2017-02-14T03:56:53.818Z,1034.9
2017-02-14T03:57:54.555Z,1034.85
2017-02-14T03:58:55.270Z,1034.83
2017-02-14T03:59:55.978Z,1034.81
2017-02-14T04:00:56.686Z,1034.83
2017-02-14T04:01:57.386Z,1034.87
2017-02-14T04:02:58.066Z,1034.83
2017-02-14T04:03:58.808Z,1034.84
2017-02-14T04:04:59.514Z,1034.87
2017-02-14T04:06:00.242Z,1034.82
2017-02-14T04:07:00.971Z,1034.85
2017-02-14T04:08:01.654Z,1034.82
2017-02-14T04:09:02.369Z,1034.82
2017-02-14T04:10:03.053Z,1034.8
2017-02-14T04:11:03.763Z,1034.77
2017-02-14T04:12:04.461Z,1034.81
2017-02-14T04:13:05.168Z,1034.77
2017-02-14T04:14:05.891Z,1034.79
2017-02-14T04:15:06.572Z,1034.77
2017-02-14T04:16:07.271Z,1034.79
2017-02-14T04:17:07.984Z,1034.76
2017-02-14T04:18:08.681Z,1034.79
2017-02-14T04:19:09.387Z,1034.8
2017-02-14T04:20:10.107Z,1034.75
2017-02-14T04:21:10.794Z,1034.76
2017-02-14T04:22:11.510Z,1034.78
2017-02-14T04:23:12.221Z,1034.78
2017-02-14T04:24:12.920Z,1034.73
2017-02-14T04:25:13.626Z,1034.72
2017-02-14T04:26:14.316Z,1034.77
2017-02-14T04:27:15.002Z,1034.77
2017-02-14T04:28:15.694Z,1034.76
2017-02-14T04:29:16.382Z,1034.78
2017-02-14T04:30:17.079Z,1034.79
2017-02-14T04:31:17.796Z,1034.77
2017-02-14T04:32:18.518Z,1034.81
2017-02-14T04:33:19.229Z,1034.84
2017-02-14T04:34:19.947Z,1034.83
2017-02-14T04:35:20.636Z,1034.83
2017-02-14T04:36:21.344Z,1034.83
2017-02-14T04:37:22.031Z,1034.82
2017-02-14T04:38:22.773Z,1034.88
2017-02-14T04:39:23.506Z,1034.84
2017-02-14T04:40:24.233Z,1034.8
2017-02-14T04:41:24.922Z,1034.79
2017-02-14T04:42:25.605Z,1034.77
2017-02-14T04:43:26.308Z,1034.78
2017-02-14T04:44:27.045Z,1034.77
2017-02-14T04:45:27.727Z,1034.73
2017-02-14T04:46:28.415Z,1034.72
2017-02-14T04:47:29.141Z,1034.82
2017-02-14T04:48:29.835Z,1034.77
2017-02-14T04:49:30.519Z,1034.8
2017-02-14T04:50:31.191Z,1034.79
2017-02-14T04:51:31.896Z,1034.83
2017-02-14T04:52:32.613Z,1034.78
2017-02-14T04:53:33.305Z,1034.73
2017-02-14T04:54:34.035Z,1034.71
2017-02-14T04:55:34.741Z,1034.71
2017-02-14T04:56:35.481Z,1034.68
2017-02-14T04:57:36.173Z,1034.65
2017-02-14T04:58:36.891Z,1034.65
2017-02-14T04:59:37.598Z,1034.67
2017-02-14T05:00:38.309Z,1034.65
2017-02-14T05:01:38.991Z,1034.62
2017-02-14T05:02:39.703Z,1034.63
2017-02-14T05:03:40.408Z,1034.64
2017-02-14T05:04:41.119Z,1034.64
2017-02-14T05:05:41.827Z,1034.68
2017-02-14T05:06:42.527Z,1034.66
2017-02-14T05:07:43.228Z,1034.64
2017-02-14T05:08:43.928Z,1034.62
2017-02-14T05:09:44.636Z,1034.62
2017-02-14T05:10:45.338Z,1034.6
2017-02-14T05:11:46.037Z,1034.59
2017-02-14T05:12:46.740Z,1034.56
2017-02-14T05:13:47.411Z,1034.57
2017-02-14T05:14:48.125Z,1034.63
2017-02-14T05:15:48.830Z,1034.64
2017-02-14T05:16:49.532Z,1034.56
2017-02-14T05:17:50.214Z,1034.59
2017-02-14T05:18:50.918Z,1034.55
2017-02-14T05:19:51.639Z,1034.53
2017-02-14T05:20:52.354Z,1034.52
2017-02-14T05:21:53.048Z,1034.48
2017-02-14T05:22:53.728Z,1034.48
2017-02-14T05:23:54.430Z,1034.49
2017-02-14T05:24:55.119Z,1034.54
2017-02-14T05:25:55.812Z,1034.58
2017-02-14T05:26:56.519Z,1034.56
2017-02-14T05:27:57.201Z,1034.57
2017-02-14T05:28:57.906Z,1034.64
2017-02-14T05:29:58.603Z,1034.59
2017-02-14T05:30:59.332Z,1034.61
2017-02-14T05:32:00.034Z,1034.62
2017-02-14T05:33:00.726Z,1034.65
2017-02-14T05:34:01.406Z,1034.62
2017-02-14T05:35:02.136Z,1034.63
2017-02-14T05:36:02.864Z,1034.61
2017-02-14T05:37:03.577Z,1034.64
2017-02-14T05:38:04.294Z,1034.66
2017-02-14T05:39:05.010Z,1034.63
2017-02-14T05:40:05.718Z,1034.67
2017-02-14T05:41:06.426Z,1034.65
2017-02-14T05:42:07.127Z,1034.73
2017-02-14T05:43:07.826Z,1034.68
2017-02-14T05:44:08.518Z,1034.7
2017-02-14T05:45:09.209Z,1034.66
2017-02-14T05:46:09.962Z,1034.69
2017-02-14T05:47:10.649Z,1034.65
2017-02-14T05:48:11.365Z,1034.66
2017-02-14T05:49:12.085Z,1034.75
2017-02-14T05:50:12.810Z,1034.68
2017-02-14T05:51:13.518Z,1034.63
2017-02-14T05:52:14.229Z,1034.65
2017-02-14T05:53:14.950Z,1034.62
2017-02-14T05:54:15.671Z,1034.61
2017-02-14T05:55:16.369Z,1034.63
2017-02-14T05:56:17.069Z,1034.6
2017-02-14T05:57:17.818Z,1034.59
2017-02-14T05:58:18.529Z,1034.6
2017-02-14T05:59:19.216Z,1034.58
2017-02-14T06:00:19.929Z,1034.58
2017-02-14T06:01:20.645Z,1034.61
2017-02-14T06:02:21.325Z,1034.56
2017-02-14T06:03:22.047Z,1034.57
2017-02-14T06:04:22.736Z,1034.64
2017-02-14T06:05:23.437Z,1034.65
2017-02-14T06:06:24.184Z,1034.66
2017-02-14T06:07:24.932Z,1034.63
2017-02-14T06:08:25.655Z,1034.65
2017-02-14T06:09:26.361Z,1034.64
2017-02-14T06:10:27.059Z,1034.71
2017-02-14T06:11:27.758Z,1034.67
2017-02-14T06:12:28.453Z,1034.66
2017-02-14T06:13:29.168Z,1034.68
2017-02-14T06:14:29.864Z,1034.66
2017-02-14T06:15:30.567Z,1034.64
2017-02-14T06:16:31.287Z,1034.68
2017-02-14T06:17:31.982Z,1034.69
2017-02-14T06:18:32.686Z,1034.7
2017-02-14T06:19:33.390Z,1034.72
2017-02-14T06:20:34.086Z,1034.68
2017-02-14T06:21:34.787Z,1034.74
2017-02-14T06:22:35.505Z,1034.78
2017-02-14T06:23:36.225Z,1034.81
2017-02-14T06:24:36.895Z,1034.79
2017-02-14T06:25:37.570Z,1034.83
2017-02-14T06:26:38.242Z,1034.8
2017-02-14T06:27:38.975Z,1034.84
2017-02-14T06:28:39.707Z,1034.82
2017-02-14T06:29:40.431Z,1034.76
2017-02-14T06:30:41.139Z,1034.79
2017-02-14T06:31:41.866Z,1034.81
2017-02-14T06:32:42.601Z,1034.79
2017-02-14T06:33:43.301Z,1034.81
2017-02-14T06:34:43.980Z,1034.87
2017-02-14T06:35:44.667Z,1034.83
2017-02-14T06:36:45.351Z,1034.85
2017-02-14T06:37:46.061Z,1034.86
2017-02-14T06:38:46.773Z,1034.86
2017-02-14T06:39:47.441Z,1034.9
2017-02-14T06:40:48.143Z,1034.87
2017-02-14T06:41:48.850Z,1034.9
2017-02-14T06:42:49.540Z,1034.96
2017-02-14T06:43:50.255Z,1034.92
2017-02-14T06:44:50.940Z,1034.96
2017-02-14T06:45:51.652Z,1034.96
2017-02-14T06:46:52.376Z,1035
2017-02-14T06:47:53.081Z,1035
2017-02-14T06:48:53.799Z,1035.01
2017-02-14T06:49:54.482Z,1035.04
2017-02-14T06:50:55.186Z,1035.01
2017-02-14T06:51:55.910Z,1035.06
2017-02-14T06:52:56.626Z,1035.07
2017-02-14T06:53:57.313Z,1035.08
2017-02-14T06:54:58.026Z,1035.11
2017-02-14T06:55:58.721Z,1035.08
2017-02-14T06:56:59.427Z,1035.08
2017-02-14T06:58:00.129Z,1035.09
2017-02-14T06:59:00.842Z,1035.1
2017-02-14T07:00:01.558Z,1035.07
2017-02-14T07:01:02.270Z,1035.03
2017-02-14T07:02:02.984Z,1035.07
2017-02-14T07:03:03.710Z,1035.1
2017-02-14T07:04:04.412Z,1035.14
2017-02-14T07:05:05.164Z,1035.17
2017-02-14T07:06:05.859Z,1035.09
2017-02-14T07:07:06.565Z,1035.16
2017-02-14T07:08:07.261Z,1035.15
2017-02-14T07:09:07.965Z,1035.16
2017-02-14T07:10:08.673Z,1035.15
2017-02-14T07:11:09.370Z,1035.15
2017-02-14T07:12:10.088Z,1035.16
2017-02-14T07:13:10.835Z,1035.16
2017-02-14T07:14:11.530Z,1035.17
2017-02-14T07:15:12.264Z,1035.18
2017-02-14T07:16:13.010Z,1035.21
2017-02-14T07:17:13.699Z,1035.21
2017-02-14T07:18:14.432Z,1035.23
2017-02-14T07:19:15.144Z,1035.23
2017-02-14T07:20:15.850Z,1035.18
2017-02-14T07:21:16.561Z,1035.27
2017-02-14T07:22:17.281Z,1035.23
2017-02-14T07:23:17.980Z,1035.26
2017-02-14T07:24:18.662Z,1035.25
2017-02-14T07:25:19.389Z,1035.3
2017-02-14T07:26:20.143Z,1035.28
2017-02-14T07:27:20.965Z,1035.33
2017-02-14T07:28:21.670Z,1035.32
2017-02-14T07:29:22.374Z,1035.33
2017-02-14T07:30:23.100Z,1035.31
2017-02-14T07:31:23.831Z,1035.38
2017-02-14T07:32:24.520Z,1035.34
2017-02-14T07:33:25.213Z,1035.37
2017-02-14T07:34:25.941Z,1035.4
2017-02-14T07:35:26.659Z,1035.39
2017-02-14T07:36:27.347Z,1035.44
2017-02-14T07:37:28.055Z,1035.38
2017-02-14T07:38:28.786Z,1035.4
2017-02-14T07:39:29.565Z,1035.39
2017-02-14T07:40:30.301Z,1035.37
2017-02-14T07:41:31.005Z,1035.36
2017-02-14T07:42:31.694Z,1035.32
2017-02-14T07:43:32.398Z,1035.31
2017-02-14T07:44:33.110Z,1035.34
2017-02-14T07:45:33.808Z,1035.34
2017-02-14T07:46:34.514Z,1035.28
2017-02-14T07:47:35.222Z,1035.3
2017-02-14T07:48:35.936Z,1035.32
2017-02-14T07:49:36.635Z,1035.33
2017-02-14T07:50:37.321Z,1035.33
2017-02-14T07:51:38.013Z,1035.29
2017-02-14T07:52:38.757Z,1035.33
2017-02-14T07:53:39.462Z,1035.32
2017-02-14T07:54:40.158Z,1035.33
2017-02-14T07:55:40.856Z,1035.39
2017-02-14T07:56:41.580Z,1035.36
2017-02-14T07:57:42.304Z,1035.37
2017-02-14T07:58:43.020Z,1035.33
2017-02-14T07:59:43.728Z,1035.34
2017-02-14T08:00:44.417Z,1035.35
2017-02-14T08:01:45.231Z,1035.31
2017-02-14T08:02:45.989Z,1035.28
2017-02-14T08:03:46.768Z,1035.28
2017-02-14T08:04:47.471Z,1035.31
2017-02-14T08:05:48.227Z,1035.27
2017-02-14T08:06:49.059Z,1035.28
2017-02-14T08:07:49.789Z,1035.28
2017-02-14T08:08:50.527Z,1035.28
2017-02-14T08:09:51.265Z,1035.29
2017-02-14T08:10:51.992Z,1035.27
2017-02-14T08:11:52.711Z,1035.28
2017-02-14T08:12:53.430Z,1035.34
2017-02-14T08:13:54.119Z,1035.29
2017-02-14T08:14:54.801Z,1035.35
2017-02-14T08:15:55.507Z,1035.24
2017-02-14T08:16:56.252Z,1035.28
2017-02-14T08:17:57.001Z,1035.27
2017-02-14T08:18:57.679Z,1035.33
2017-02-14T08:19:58.377Z,1035.3
2017-02-14T08:20:59.078Z,1035.28
2017-02-14T08:21:59.786Z,1035.28
2017-02-14T08:23:00.477Z,1035.32
2017-02-14T08:24:01.261Z,1035.35
2017-02-14T08:25:01.963Z,1035.31
2017-02-14T08:26:02.673Z,1035.35
2017-02-14T08:27:03.414Z,1035.34
2017-02-14T08:28:04.145Z,1035.35
2017-02-14T08:29:04.858Z,1035.38
2017-02-14T08:30:05.566Z,1035.33
2017-02-14T08:31:06.292Z,1035.39
2017-02-14T08:32:07.001Z,1035.36
2017-02-14T08:33:07.712Z,1035.34
2017-02-14T08:34:08.479Z,1035.39
2017-02-14T08:35:09.221Z,1035.4
2017-02-14T08:36:09.929Z,1035.37
2017-02-14T08:37:10.658Z,1035.4
2017-02-14T08:38:11.376Z,1035.48
2017-02-14T08:39:12.092Z,1035.44
2017-02-14T08:40:12.817Z,1035.4
2017-02-14T08:41:13.516Z,1035.39
2017-02-14T08:42:17.131Z,1035.39
2017-02-14T08:43:17.854Z,1035.41
2017-02-14T08:44:18.594Z,1035.43
2017-02-14T08:45:19.461Z,1035.43
2017-02-14T08:46:20.194Z,1035.42
2017-02-14T08:47:20.912Z,1035.47
2017-02-14T08:48:21.664Z,1035.49
2017-02-14T08:49:22.384Z,1035.46
2017-02-14T08:50:23.096Z,1035.5
2017-02-14T08:51:23.847Z,1035.48
2017-02-14T08:52:24.599Z,1035.42
2017-02-14T08:53:25.313Z,1035.48
2017-02-14T08:54:26.032Z,1035.45
2017-02-14T08:55:26.764Z,1035.52
2017-02-14T08:56:27.467Z,1035.54
2017-02-14T08:57:28.253Z,1035.52
2017-02-14T08:58:29.017Z,1035.54
2017-02-14T08:59:29.709Z,1035.6
2017-02-14T09:00:30.457Z,1035.56
2017-02-14T09:01:31.169Z,1035.56
2017-02-14T09:02:31.870Z,1035.58
2017-02-14T09:03:32.605Z,1035.56
2017-02-14T09:04:33.362Z,1035.57
2017-02-14T09:05:34.076Z,1035.56
2017-02-14T09:06:34.769Z,1035.55
2017-02-14T09:07:35.496Z,1035.53
2017-02-14T09:08:36.204Z,1035.51
2017-02-14T09:09:36.923Z,1035.5
2017-02-14T09:10:37.647Z,1035.53
2017-02-14T09:11:38.436Z,1035.54
2017-02-14T09:12:39.172Z,1035.5
2017-02-14T09:13:39.904Z,1035.53
2017-02-14T09:14:40.613Z,1035.54
2017-02-14T09:15:41.310Z,1035.51
2017-02-14T09:16:42.046Z,1035.5
2017-02-14T09:17:42.757Z,1035.49
2017-02-14T09:18:43.467Z,1035.46
2017-02-14T09:19:44.207Z,1035.48
2017-02-14T09:20:44.926Z,1035.47
2017-02-14T09:21:45.630Z,1035.46
2017-02-14T09:22:46.349Z,1035.49
2017-02-14T09:23:47.086Z,1035.49
2017-02-14T09:24:47.821Z,1035.47
2017-02-14T09:25:48.520Z,1035.52
2017-02-14T09:26:49.268Z,1035.49
2017-02-14T09:27:49.988Z,1035.48
2017-02-14T09:28:50.707Z,1035.48
2017-02-14T09:29:51.446Z,1035.47
2017-02-14T09:30:52.181Z,1035.46
2017-02-14T09:31:53.028Z,1035.5
2017-02-14T09:32:53.731Z,1035.41
2017-02-14T09:33:54.441Z,1035.47
2017-02-14T09:34:55.210Z,1035.51
2017-02-14T09:35:55.917Z,1035.49
2017-02-14T09:36:56.601Z,1035.48
2017-02-14T09:37:57.278Z,1035.48
2017-02-14T09:38:57.997Z,1035.47
2017-02-14T09:39:58.733Z,1035.5
2017-02-14T09:40:59.442Z,1035.46
2017-02-14T09:42:00.197Z,1035.43
2017-02-14T09:43:00.927Z,1035.43
2017-02-14T09:44:01.664Z,1035.43
2017-02-14T09:45:02.383Z,1035.42
2017-02-14T09:46:03.141Z,1035.44
2017-02-14T09:47:03.860Z,1035.42
2017-02-14T09:48:04.613Z,1035.43
2017-02-14T09:49:05.304Z,1035.36
2017-02-14T09:50:06.004Z,1035.36
2017-02-14T09:51:06.716Z,1035.36
2017-02-14T09:52:07.409Z,1035.34
2017-02-14T09:53:08.150Z,1035.33
2017-02-14T09:54:08.874Z,1035.34
2017-02-14T09:55:09.642Z,1035.31
2017-02-14T09:56:10.340Z,1035.33
2017-02-14T09:57:11.037Z,1035.32
2017-02-14T09:58:11.786Z,1035.33
2017-02-14T09:59:12.505Z,1035.36
2017-02-14T10:00:13.228Z,1035.38
2017-02-14T10:01:13.964Z,1035.39
2017-02-14T10:02:14.673Z,1035.44
2017-02-14T10:03:15.423Z,1035.45
2017-02-14T10:04:16.140Z,1035.47
2017-02-14T10:05:16.898Z,1035.44
2017-02-14T10:06:17.615Z,1035.42
2017-02-14T10:07:18.333Z,1035.48
2017-02-14T10:08:19.048Z,1035.43
2017-02-14T10:09:19.755Z,1035.39
2017-02-14T10:10:20.673Z,1035.39
2017-02-14T10:11:21.487Z,1035.37
2017-02-14T10:12:22.265Z,1035.36
2017-02-14T10:13:22.987Z,1035.32
2017-02-14T10:14:23.782Z,1035.35
2017-02-14T10:15:24.632Z,1035.31
2017-02-14T10:16:25.461Z,1035.31
2017-02-14T10:17:26.221Z,1035.31
2017-02-14T10:18:26.981Z,1035.23
2017-02-14T10:19:27.741Z,1035.29
2017-02-14T10:20:28.475Z,1035.27
2017-02-14T10:21:29.197Z,1035.26
2017-02-14T10:22:29.927Z,1035.25
2017-02-14T10:23:30.687Z,1035.16
2017-02-14T10:24:31.471Z,1035.22
2017-02-14T10:25:32.364Z,1035.18
2017-02-14T10:26:33.144Z,1035.15
2017-02-14T10:27:33.838Z,1035.18
2017-02-14T10:28:34.604Z,1035.16
2017-02-14T10:29:35.381Z,1035.18
2017-02-14T10:30:36.264Z,1035.18
2017-02-14T10:31:37.143Z,1035.22
2017-02-14T10:32:37.997Z,1035.16
2017-02-14T10:33:38.978Z,1035.17
2017-02-14T10:34:39.945Z,1035.15
2017-02-14T10:35:41.030Z,1035.21
2017-02-14T10:36:41.902Z,1035.17
2017-02-14T10:37:42.735Z,1035.14
2017-02-14T10:38:43.469Z,1035.1
2017-02-14T10:39:44.279Z,1035.16
2017-02-14T10:40:45.116Z,1035.09
2017-02-14T10:41:46.037Z,1035.11
2017-02-14T10:42:46.822Z,1035.11
2017-02-14T10:43:47.553Z,1035.09
2017-02-14T10:44:48.297Z,1035.09
2017-02-14T10:45:49.121Z,1035.14
2017-02-14T10:46:49.915Z,1035.09
2017-02-14T10:47:50.714Z,1035.11
2017-02-14T10:48:51.431Z,1035.16
2017-02-14T10:49:52.130Z,1035.12
2017-02-14T10:50:52.945Z,1035.12
2017-02-14T10:51:53.666Z,1035.09
2017-02-14T10:52:54.406Z,1035.12
2017-02-14T10:53:55.110Z,1035.14
2017-02-14T10:54:55.829Z,1035.11
2017-02-14T10:55:56.566Z,1035.05
2017-02-14T10:56:57.329Z,1035.04
2017-02-14T10:57:58.085Z,1035.09
2017-02-14T10:58:58.816Z,1035.06
2017-02-14T10:59:59.546Z,1035.05
2017-02-14T11:01:00.279Z,1035.09
2017-02-14T11:02:01.002Z,1035.01
2017-02-14T11:03:01.741Z,1035.01
2017-02-14T11:04:02.478Z,1035.02
2017-02-14T11:05:03.206Z,1035.06
2017-02-14T11:06:03.955Z,1035.03
2017-02-14T11:07:04.718Z,1035.04
2017-02-14T11:08:05.439Z,1035.05
2017-02-14T11:09:06.209Z,1035
2017-02-14T11:10:06.929Z,1035.01
2017-02-14T11:11:07.720Z,1034.98
2017-02-14T11:12:08.447Z,1034.97
2017-02-14T11:13:09.224Z,1034.94
2017-02-14T11:14:09.942Z,1034.97
2017-02-14T11:15:10.648Z,1034.89
2017-02-14T11:16:11.397Z,1034.94
2017-02-14T11:17:12.057Z,1034.91
2017-02-14T11:18:12.802Z,1034.94
2017-02-14T11:19:13.511Z,1034.93
2017-02-14T11:20:14.215Z,1034.93
2017-02-14T11:21:14.938Z,1034.94
2017-02-14T11:22:15.698Z,1034.91
2017-02-14T11:23:16.439Z,1034.92
2017-02-14T11:24:17.164Z,1035
2017-02-14T11:25:17.908Z,1034.99
2017-02-14T11:26:18.690Z,1034.94
2017-02-14T11:27:19.438Z,1035
2017-02-14T11:28:20.173Z,1034.96
2017-02-14T11:29:20.881Z,1034.98
2017-02-14T11:30:21.637Z,1035
2017-02-14T11:31:22.339Z,1034.98
2017-02-14T11:32:23.054Z,1034.93
2017-02-14T11:33:23.773Z,1034.97
2017-02-14T11:34:24.499Z,1034.91
2017-02-14T11:35:25.206Z,1034.93
2017-02-14T11:36:25.934Z,1034.9
2017-02-14T11:37:26.672Z,1034.88
2017-02-14T11:38:27.390Z,1034.94
2017-02-14T11:39:28.133Z,1034.89
2017-02-14T11:40:28.899Z,1034.9
2017-02-14T11:41:29.616Z,1034.89
2017-02-14T11:42:30.401Z,1034.86
2017-02-14T11:43:31.109Z,1034.84
2017-02-14T11:44:31.847Z,1034.88
2017-02-14T11:45:32.582Z,1034.83
2017-02-14T11:46:33.293Z,1034.8
2017-02-14T11:47:34.044Z,1034.8
2017-02-14T11:48:34.780Z,1034.82
2017-02-14T11:49:35.504Z,1034.76
2017-02-14T11:50:36.226Z,1034.77
2017-02-14T11:51:36.931Z,1034.82
2017-02-14T11:52:37.643Z,1034.8
2017-02-14T11:53:38.366Z,1034.79
2017-02-14T11:54:39.084Z,1034.75
2017-02-14T11:55:39.799Z,1034.72
2017-02-14T11:56:40.519Z,1034.69
2017-02-14T11:57:41.234Z,1034.66
2017-02-14T11:58:41.960Z,1034.66
2017-02-14T11:59:42.682Z,1034.65
2017-02-14T12:00:43.403Z,1034.66
2017-02-14T12:01:44.168Z,1034.61
2017-02-14T12:02:44.872Z,1034.64
2017-02-14T12:03:45.687Z,1034.62
2017-02-14T12:04:46.399Z,1034.63
2017-02-14T12:05:47.169Z,1034.57
2017-02-14T12:06:47.905Z,1034.66
2017-02-14T12:07:48.704Z,1034.68
2017-02-14T12:08:49.368Z,1034.58
2017-02-14T12:09:50.165Z,1034.65
2017-02-14T12:10:51.021Z,1034.56
2017-02-14T12:11:51.743Z,1034.58
2017-02-14T12:12:52.468Z,1034.54
2017-02-14T12:13:53.207Z,1034.49
2017-02-14T12:14:54.010Z,1034.51
2017-02-14T12:15:54.886Z,1034.52
2017-02-14T12:16:55.634Z,1034.48